Airfield :
LOGIN :

Register | Disclaimer

   EN    FR    IT 

 










Legend :    VFR   Marginal VFR   IFR   Intensive IFR   Very Intensive IFR
Visi :
Ceiling :
>= 8 km
>= 3000ft
5 to 8 km
1000 to 3000 ft
1500m to 5 km
500 to 1000 ft
800 to 1500m
200 to 500 ft
< 800m
< 200 ft
Symbols :   Thunderstorms  Fog  Heavy snow  Heavy precipitations  Wind > 20 kt
SIGMETs :     Misc.  Thunderstorms  Icing  Turbulence  Mountain Waves  Volcanic Ashes






- Airport Elevation : 436 ft
- IATA code : BTS


LZIB - Bratislava

CURRENT METAR :
  • 261130Z 12006KT 090V150 9999 FEW030 22/14 Q1020 NOSIG

EXPIRED METARs :
  • 261100Z 12007KT 070V150 9999 FEW028 22/14 Q1020 NOSIG
  • 261030Z 11004KT 020V180 9999 FEW027 21/14 Q1020 NOSIG
  • 261000Z 08006KT 040V110 CAVOK 20/14 Q1020 NOSIG
  • 260930Z 07006KT 040V100 CAVOK 20/14 Q1021 NOSIG
  • 260900Z 07007KT CAVOK 19/14 Q1021 NOSIG

TAF TAF LZIB
Valid from the 26 at 12:00 until the 27 at 12:00 UTC


261100Z 2612/2712 08007KT CAVOK
BECMG 2702/2704 9999 SCT025
TEMPO 2704/2712 SHRA SCT020 SCT033TCU



MET'MAP, your aeronautical weather chart ! - Copyright ORBIFLY December 2007 - Disclaimer

ORBIFLY MET'MAP TEAM :

Programming & Development : Alexandra Zaïnal
Concept & original design : Baudouin d'Aumeries
Assistance for programming : Marc-Olivier Méhu
Technical & hardware support : Manuel Goepfert

Contact : metmap@orbifly.com




SOURCES & CREDITS :

   NOAA